createdAt,value
2023-01-28T00:00:48.817Z,-3.01
2023-01-28T00:03:15.369Z,-3.14
2023-01-28T00:05:42.558Z,-3.11
2023-01-28T00:08:09.291Z,-3.01
2023-01-28T00:10:39.633Z,-3.07
2023-01-28T00:13:07.104Z,-3.09
2023-01-28T00:15:33.723Z,-3.07
2023-01-28T00:18:00.254Z,-3.03
2023-01-28T00:20:26.799Z,-3.10
2023-01-28T00:22:53.329Z,-3.11
2023-01-28T00:25:20.288Z,-3.06
2023-01-28T00:27:46.809Z,-3.10
2023-01-28T00:30:13.766Z,-3.21
2023-01-28T00:32:40.423Z,-3.07
2023-01-28T00:35:07.823Z,-3.19
2023-01-28T00:37:34.372Z,-3.15
2023-01-28T00:40:00.936Z,-3.18
2023-01-28T00:42:27.500Z,-3.18
2023-01-28T00:44:54.048Z,-2.53
2023-01-28T00:47:20.660Z,-3.20
2023-01-28T00:49:47.214Z,-3.11
2023-01-28T00:52:13.779Z,-3.14
2023-01-28T00:54:40.362Z,-3.09
2023-01-28T00:57:06.935Z,-3.16
2023-01-28T00:59:33.447Z,-3.12
2023-01-28T01:01:59.970Z,-3.11
2023-01-28T01:04:26.608Z,-3.09
2023-01-28T01:06:53.285Z,-3.14
2023-01-28T01:09:19.944Z,-3.19
2023-01-28T01:11:46.541Z,-3.15
2023-01-28T01:14:13.106Z,-3.10
2023-01-28T01:16:39.609Z,-3.14
2023-01-28T01:19:06.126Z,-3.18
2023-01-28T01:21:32.651Z,-3.10
2023-01-28T01:23:59.233Z,-3.09
2023-01-28T01:26:25.927Z,-3.24
2023-01-28T01:28:52.515Z,-3.14
2023-01-28T01:31:19.948Z,-3.14
2023-01-28T01:33:47.504Z,-3.11
2023-01-28T01:36:14.803Z,-3.08
2023-01-28T01:38:41.461Z,-3.13
2023-01-28T01:41:08.150Z,-3.14
2023-01-28T01:44:01.652Z,-3.16
2023-01-28T01:46:43.932Z,-3.18
2023-01-28T01:49:17.926Z,-3.04
2023-01-28T01:51:44.456Z,-3.11
2023-01-28T01:54:10.989Z,-3.08
2023-01-28T01:56:39.055Z,-3.11
2023-01-28T01:59:05.638Z,-3.19
2023-01-28T02:01:32.250Z,-3.13
2023-01-28T02:04:06.219Z,-3.15
2023-01-28T02:06:32.803Z,-3.19
2023-01-28T02:08:59.379Z,-3.21
2023-01-28T02:11:27.299Z,-3.16
2023-01-28T02:13:56.853Z,-3.09
2023-01-28T02:16:23.695Z,-3.09
2023-01-28T02:18:50.284Z,-3.16
2023-01-28T02:21:28.817Z,-3.15
2023-01-28T02:24:06.876Z,-3.16
2023-01-28T02:26:51.872Z,-3.16
2023-01-28T02:29:27.694Z,-3.15
2023-01-28T02:32:11.125Z,-3.10
2023-01-28T02:35:14.825Z,-3.11
2023-01-28T02:37:47.797Z,-3.12
2023-01-28T02:40:17.679Z,-3.13
2023-01-28T02:42:44.225Z,-3.09
2023-01-28T02:45:25.656Z,-3.12
2023-01-28T02:47:52.243Z,-3.14
2023-01-28T02:50:18.793Z,-3.09
2023-01-28T02:52:54.328Z,-3.10
2023-01-28T02:55:25.335Z,-3.13
2023-01-28T02:58:10.278Z,-3.13
2023-01-28T03:00:55.324Z,-3.14
2023-01-28T03:03:26.978Z,-3.18
2023-01-28T03:05:58.853Z,-3.16
2023-01-28T03:08:25.335Z,-3.23
2023-01-28T03:10:53.328Z,-3.19
2023-01-28T03:13:19.814Z,-3.20
2023-01-28T03:15:49.482Z,-3.18
2023-01-28T03:18:18.444Z,-3.19
2023-01-28T03:21:11.784Z,-3.23
2023-01-28T03:23:59.140Z,-3.16
2023-01-28T03:26:25.765Z,-3.21
2023-01-28T03:28:52.361Z,-3.18
2023-01-28T03:31:19.315Z,-3.13
2023-01-28T03:33:45.905Z,-3.16
2023-01-28T03:36:12.392Z,-3.17
2023-01-28T03:38:41.110Z,-3.24
2023-01-28T03:41:08.967Z,-3.23
2023-01-28T03:43:35.577Z,-3.20
2023-01-28T03:46:02.525Z,-3.12
2023-01-28T03:48:29.182Z,-3.26
2023-01-28T03:50:56.050Z,-3.26
2023-01-28T03:53:22.627Z,-3.22
2023-01-28T03:55:50.467Z,-3.41
2023-01-28T03:58:17.732Z,-3.22
2023-01-28T04:00:44.342Z,-3.24
2023-01-28T04:03:12.421Z,-3.32
2023-01-28T04:05:39.305Z,-3.33
2023-01-28T04:08:05.893Z,-3.39
2023-01-28T04:10:32.437Z,-3.47
2023-01-28T04:12:58.958Z,-3.34
2023-01-28T04:15:25.610Z,-3.31
2023-01-28T04:17:52.117Z,-3.34
2023-01-28T04:20:18.750Z,-3.37
2023-01-28T04:22:45.309Z,-3.41
2023-01-28T04:25:12.285Z,-3.42
2023-01-28T04:27:39.169Z,-3.39
2023-01-28T04:30:06.218Z,-3.44
2023-01-28T04:32:33.092Z,-3.48
2023-01-28T04:34:59.671Z,-3.46
2023-01-28T04:37:26.277Z,-3.48
2023-01-28T04:39:52.859Z,-3.49
2023-01-28T04:42:19.370Z,-3.52
2023-01-28T04:44:45.911Z,-3.54
2023-01-28T04:47:12.458Z,-3.54
2023-01-28T04:49:39.006Z,-3.56
2023-01-28T04:52:05.861Z,-3.53
2023-01-28T04:54:32.452Z,-3.58
2023-01-28T04:56:59.045Z,-3.50
2023-01-28T04:59:25.570Z,-3.53
2023-01-28T05:01:52.193Z,-3.56
2023-01-28T05:04:18.786Z,-3.56
2023-01-28T05:06:45.313Z,-3.53
2023-01-28T05:09:11.855Z,-3.43
2023-01-28T05:11:39.336Z,-3.46
2023-01-28T05:14:05.977Z,-3.39
2023-01-28T05:16:32.653Z,-3.42
2023-01-28T05:18:59.171Z,-3.45
2023-01-28T05:21:26.401Z,-3.43
2023-01-28T05:23:52.945Z,-3.50
2023-01-28T05:26:19.512Z,-3.42
2023-01-28T05:28:46.009Z,-3.39
2023-01-28T05:31:12.524Z,-3.49
2023-01-28T05:33:39.020Z,-3.49
2023-01-28T05:36:05.818Z,-3.53
2023-01-28T05:38:32.327Z,-3.46
2023-01-28T05:40:58.881Z,-3.52
2023-01-28T05:43:25.434Z,-3.45
2023-01-28T05:45:51.987Z,-3.43
2023-01-28T05:48:18.576Z,-3.45
2023-01-28T05:50:47.328Z,-3.35
2023-01-28T05:53:13.886Z,-3.33
2023-01-28T05:55:40.420Z,-3.39
2023-01-28T05:58:07.017Z,-3.43
2023-01-28T06:00:33.627Z,-3.52
2023-01-28T06:03:00.240Z,-3.45
2023-01-28T06:05:26.833Z,-3.47
2023-01-28T06:07:53.337Z,-3.50
2023-01-28T06:10:19.887Z,-3.53
2023-01-28T06:12:46.410Z,-3.47
2023-01-28T06:15:12.914Z,-3.42
2023-01-28T06:17:39.541Z,-3.47
2023-01-28T06:20:06.461Z,-3.41
2023-01-28T06:22:33.043Z,-3.42
2023-01-28T06:24:59.537Z,-3.42
2023-01-28T06:27:26.175Z,-3.46
2023-01-28T06:29:52.908Z,-3.49
2023-01-28T06:32:19.526Z,-3.52
2023-01-28T06:34:46.047Z,-3.48
2023-01-28T06:37:13.539Z,-3.43
2023-01-28T06:39:40.083Z,-3.46
2023-01-28T06:42:06.636Z,-3.49
2023-01-28T06:44:33.143Z,-3.42
2023-01-28T06:46:59.653Z,-3.37
2023-01-28T06:49:26.138Z,-3.28
2023-01-28T06:51:52.684Z,-3.38
2023-01-28T06:54:19.226Z,-3.40
2023-01-28T06:56:45.762Z,-3.35
2023-01-28T06:59:12.311Z,-3.39
2023-01-28T07:01:38.909Z,-3.33
2023-01-28T07:04:05.623Z,-3.33
2023-01-28T07:06:32.245Z,-3.31
2023-01-28T07:08:58.836Z,-3.33
2023-01-28T07:11:25.393Z,-3.27
2023-01-28T07:13:51.951Z,-3.24
2023-01-28T07:16:18.491Z,-3.21
2023-01-28T07:18:45.096Z,-3.23
2023-01-28T07:21:11.703Z,-3.17
2023-01-28T07:23:38.251Z,-3.22
2023-01-28T07:26:05.058Z,-3.21
2023-01-28T07:28:31.768Z,-3.15
2023-01-28T07:31:09.607Z,-3.18
2023-01-28T07:33:36.345Z,-3.15
2023-01-28T07:36:02.872Z,-3.18
2023-01-28T07:38:29.517Z,-3.18
2023-01-28T07:40:56.349Z,-3.04
2023-01-28T07:43:22.913Z,-3.16
2023-01-28T07:45:49.423Z,-2.99
2023-01-28T07:48:16.491Z,-3.02
2023-01-28T07:50:43.033Z,-3.00
2023-01-28T07:53:10.940Z,-3.01
2023-01-28T07:55:37.927Z,-2.96
2023-01-28T07:58:05.772Z,-2.93
2023-01-28T08:00:33.127Z,-2.91
2023-01-28T08:03:01.088Z,-2.84
2023-01-28T08:05:32.038Z,-2.80
2023-01-28T08:07:58.571Z,-2.76
2023-01-28T08:10:25.164Z,-2.83
2023-01-28T08:12:56.280Z,-2.81
2023-01-28T08:15:22.935Z,-2.80
2023-01-28T08:17:49.481Z,-2.66
2023-01-28T08:20:16.866Z,-2.65
2023-01-28T08:22:43.521Z,-2.59
2023-01-28T08:25:10.057Z,-2.70
2023-01-28T08:27:36.650Z,-2.63
2023-01-28T08:30:03.655Z,-2.58
2023-01-28T08:32:30.318Z,-2.53
2023-01-28T08:34:57.053Z,-2.54
2023-01-28T08:37:23.836Z,-2.53
2023-01-28T08:39:50.786Z,-2.52
2023-01-28T08:42:17.323Z,-2.50
2023-01-28T08:44:43.884Z,-2.46
2023-01-28T08:47:10.417Z,-2.42
2023-01-28T08:49:37.433Z,-2.34
2023-01-28T08:52:04.115Z,-2.28
2023-01-28T08:54:30.695Z,-2.30
2023-01-28T08:56:57.263Z,-2.35
2023-01-28T08:59:23.812Z,-2.30
2023-01-28T09:01:51.322Z,-2.24
2023-01-28T09:04:17.955Z,-2.31
2023-01-28T09:06:44.479Z,-2.36
2023-01-28T09:09:11.001Z,-2.26
2023-01-28T09:11:37.493Z,-2.30
2023-01-28T09:14:04.020Z,-2.30
2023-01-28T09:16:30.518Z,-2.30
2023-01-28T09:18:57.029Z,-2.29
2023-01-28T09:21:23.565Z,-2.26
2023-01-28T09:23:50.173Z,-2.32
2023-01-28T09:26:16.682Z,-2.30
2023-01-28T09:28:43.227Z,-2.33
2023-01-28T09:31:11.166Z,-2.29
2023-01-28T09:33:38.429Z,-2.26
2023-01-28T09:36:06.321Z,-2.43
2023-01-28T09:38:32.972Z,-2.18
2023-01-28T09:40:59.548Z,-2.10
2023-01-28T09:44:03.911Z,-2.15
2023-01-28T09:46:35.296Z,-2.10
2023-01-28T09:49:05.332Z,-2.20
2023-01-28T09:51:40.525Z,-2.15
2023-01-28T09:54:34.940Z,-2.20
2023-01-28T09:57:06.260Z,-2.21
2023-01-28T09:59:35.883Z,-2.21
2023-01-28T10:02:23.086Z,-2.18
2023-01-28T10:05:14.454Z,-2.08
2023-01-28T10:08:02.660Z,-2.09
2023-01-28T10:10:39.267Z,-2.07
2023-01-28T10:13:24.465Z,-2.09
2023-01-28T10:15:50.864Z,-2.09
2023-01-28T10:18:18.534Z,-2.15
2023-01-28T10:21:10.920Z,-2.10
2023-01-28T10:23:55.478Z,-2.10
2023-01-28T10:26:23.882Z,-2.02
2023-01-28T10:28:54.564Z,-2.05
2023-01-28T10:31:22.173Z,-2.06
2023-01-28T10:33:48.681Z,-2.02
2023-01-28T10:36:15.268Z,-1.90
2023-01-28T10:38:41.811Z,-1.89
2023-01-28T10:41:10.096Z,-1.89
2023-01-28T10:43:37.855Z,-1.87
2023-01-28T10:46:13.526Z,-1.91
2023-01-28T10:48:49.924Z,-1.78
2023-01-28T10:51:16.492Z,-1.87
2023-01-28T10:53:46.361Z,-1.94
2023-01-28T10:56:32.856Z,-1.83
2023-01-28T10:59:06.920Z,-1.82
2023-01-28T11:01:45.201Z,-1.87
2023-01-28T11:04:22.510Z,-1.79
2023-01-28T11:06:57.033Z,-1.88
2023-01-28T11:09:45.908Z,-1.88
2023-01-28T11:12:25.336Z,-1.82
2023-01-28T11:14:56.713Z,-1.76
2023-01-28T11:17:29.929Z,-1.88
2023-01-28T11:20:00.157Z,-1.80
2023-01-28T11:22:38.790Z,-1.71
2023-01-28T11:25:40.540Z,-1.84
2023-01-28T11:28:16.334Z,-1.75
2023-01-28T11:30:43.110Z,-1.73
2023-01-28T11:33:17.861Z,-1.72
2023-01-28T11:35:55.933Z,-1.60
2023-01-28T11:38:24.734Z,-1.71
2023-01-28T11:40:52.270Z,-1.83
2023-01-28T11:43:20.553Z,-1.82
2023-01-28T11:46:11.417Z,-1.78
2023-01-28T11:48:56.803Z,-1.68
2023-01-28T11:51:42.089Z,-1.76
2023-01-28T11:54:36.730Z,-1.72
2023-01-28T11:57:29.723Z,-1.69
2023-01-28T12:00:41.038Z,-1.67
2023-01-28T12:03:52.983Z,-1.66
2023-01-28T12:06:26.678Z,-1.73
2023-01-28T12:09:16.051Z,-1.67
2023-01-28T12:11:51.891Z,-1.65
2023-01-28T12:15:04.910Z,-1.66
2023-01-28T12:18:06.313Z,-1.69
2023-01-28T12:20:46.145Z,-1.78
2023-01-28T12:23:43.598Z,-1.75
2023-01-28T12:26:11.493Z,-1.70
2023-01-28T12:28:48.971Z,-1.69
2023-01-28T12:31:21.786Z,-1.57
2023-01-28T12:34:09.602Z,-1.59
2023-01-28T12:36:57.710Z,-1.63
2023-01-28T12:39:43.115Z,-1.53
2023-01-28T12:42:13.261Z,-1.55
2023-01-28T12:44:59.444Z,-1.60
2023-01-28T12:47:29.043Z,-1.54
2023-01-28T12:50:25.929Z,-1.57
2023-01-28T12:52:58.001Z,-1.55
2023-01-28T12:55:56.883Z,-1.63
2023-01-28T12:58:35.999Z,-1.67
2023-01-28T13:01:05.247Z,-1.72
2023-01-28T13:03:38.313Z,-1.70
2023-01-28T13:06:23.792Z,-1.60
2023-01-28T13:08:50.306Z,-1.65
2023-01-28T13:11:17.311Z,-1.61
2023-01-28T13:13:45.013Z,-1.66
2023-01-28T13:16:11.875Z,-1.64
2023-01-28T13:18:41.832Z,-1.64
2023-01-28T13:21:12.657Z,-1.67
2023-01-28T13:23:39.079Z,-1.76
2023-01-28T13:26:23.696Z,-1.72
2023-01-28T13:28:51.845Z,-1.71
2023-01-28T13:31:22.877Z,-1.62
2023-01-28T13:34:02.278Z,-1.58
2023-01-28T13:36:43.833Z,-1.54
2023-01-28T13:39:13.644Z,-1.61
2023-01-28T13:41:41.735Z,-1.65
2023-01-28T13:44:27.916Z,-1.65
2023-01-28T13:47:30.386Z,-1.67
2023-01-28T13:49:59.856Z,-1.57
2023-01-28T13:52:37.932Z,-1.51
2023-01-28T13:55:06.714Z,-1.45
2023-01-28T13:58:04.880Z,-1.45
2023-01-28T14:00:37.371Z,-1.54
2023-01-28T14:03:25.641Z,-1.62
2023-01-28T14:06:01.057Z,-1.58
2023-01-28T14:08:42.825Z,-1.62
2023-01-28T14:11:35.307Z,-1.64
2023-01-28T14:14:26.645Z,-1.60
2023-01-28T14:16:56.933Z,-1.68
2023-01-28T14:19:28.564Z,-1.63
2023-01-28T14:21:55.365Z,-1.66
2023-01-28T14:24:21.968Z,-1.64
2023-01-28T14:27:27.822Z,-1.72
2023-01-28T14:30:18.807Z,-1.72
2023-01-28T14:32:46.914Z,-1.70
2023-01-28T14:35:19.676Z,-1.62
2023-01-28T14:37:46.203Z,-1.75
2023-01-28T14:40:15.151Z,-1.75
2023-01-28T14:42:46.282Z,-1.75
2023-01-28T14:45:31.422Z,-1.78
2023-01-28T14:48:28.926Z,-1.69
2023-01-28T14:50:58.368Z,-1.80
2023-01-28T14:53:37.493Z,-1.86
2023-01-28T14:56:22.607Z,-1.80
2023-01-28T14:58:52.066Z,-1.83
2023-01-28T15:01:20.759Z,-1.72
2023-01-28T15:03:47.297Z,-1.83
2023-01-28T15:06:16.052Z,-1.92
2023-01-28T15:08:42.619Z,-1.81
2023-01-28T15:11:12.488Z,-1.80
2023-01-28T15:13:41.411Z,-1.80
2023-01-28T15:16:08.132Z,-1.77
2023-01-28T15:18:36.302Z,-1.77
2023-01-28T15:21:02.838Z,-1.87
2023-01-28T15:23:33.218Z,-1.93
2023-01-28T15:25:59.929Z,-1.78
2023-01-28T15:28:35.749Z,-1.79
2023-01-28T15:31:02.581Z,-1.83
2023-01-28T15:33:29.224Z,-1.79
2023-01-28T15:35:56.804Z,-1.76
2023-01-28T15:38:23.734Z,-1.83
2023-01-28T15:41:01.459Z,-1.88
2023-01-28T15:43:35.237Z,-1.78
2023-01-28T15:46:01.873Z,-1.75
2023-01-28T15:48:29.571Z,-1.82
2023-01-28T15:51:09.267Z,-1.90
2023-01-28T15:53:46.385Z,-1.94
2023-01-28T15:56:14.336Z,-1.89
2023-01-28T15:58:40.948Z,-1.93
2023-01-28T16:01:10.514Z,-2.00
2023-01-28T16:03:37.730Z,-2.06
2023-01-28T16:06:17.723Z,-2.02
2023-01-28T16:08:57.216Z,-2.00
2023-01-28T16:11:26.026Z,-2.03
2023-01-28T16:13:52.498Z,-1.97
2023-01-28T16:16:33.321Z,-2.02
2023-01-28T16:19:00.100Z,-2.03
2023-01-28T16:21:37.937Z,-2.01
2023-01-28T16:24:28.546Z,-2.03
2023-01-28T16:27:05.804Z,-1.97
2023-01-28T16:29:33.063Z,-2.06
2023-01-28T16:32:00.550Z,-2.05
2023-01-28T16:34:27.293Z,-2.05
2023-01-28T16:36:58.369Z,-2.05
2023-01-28T16:39:24.981Z,-1.99
2023-01-28T16:41:51.526Z,-2.05
2023-01-28T16:44:18.109Z,-2.09
2023-01-28T16:46:44.846Z,-2.07
2023-01-28T16:49:11.438Z,-2.03
2023-01-28T16:51:38.376Z,-1.97
2023-01-28T16:54:05.364Z,-2.02
2023-01-28T16:56:47.365Z,-2.13
2023-01-28T16:59:14.913Z,-2.11
2023-01-28T17:01:42.001Z,-2.12
2023-01-28T17:04:10.589Z,-2.09
2023-01-28T17:06:38.757Z,-2.20
2023-01-28T17:09:05.785Z,-2.24
2023-01-28T17:11:32.807Z,-2.23
2023-01-28T17:14:01.726Z,-2.26
2023-01-28T17:16:29.192Z,-2.26
2023-01-28T17:18:55.915Z,-2.28
2023-01-28T17:21:22.452Z,-2.23
2023-01-28T17:23:48.973Z,-2.28
2023-01-28T17:26:15.844Z,-2.25
2023-01-28T17:28:45.598Z,-2.25
2023-01-28T17:31:13.404Z,-2.21
2023-01-28T17:33:40.573Z,-2.26
2023-01-28T17:36:07.794Z,-2.24
2023-01-28T17:38:34.383Z,-2.28
2023-01-28T17:41:04.864Z,-2.14
2023-01-28T17:43:31.654Z,-2.14
2023-01-28T17:45:58.219Z,-2.19
2023-01-28T17:48:25.017Z,-2.15
2023-01-28T17:50:56.134Z,-2.20
2023-01-28T17:53:22.743Z,-2.23
2023-01-28T17:55:49.256Z,-2.30
2023-01-28T17:58:15.762Z,-2.25
2023-01-28T18:00:42.372Z,-2.25
2023-01-28T18:03:13.609Z,-2.24
2023-01-28T18:05:40.522Z,-2.21
2023-01-28T18:08:07.325Z,-2.12
2023-01-28T18:10:33.941Z,-2.19
2023-01-28T18:13:00.639Z,-2.21
2023-01-28T18:15:27.220Z,-2.17
2023-01-28T18:17:53.818Z,-2.15
2023-01-28T18:20:23.108Z,-2.14
2023-01-28T18:22:49.673Z,-2.20
2023-01-28T18:25:17.466Z,-2.16
2023-01-28T18:27:44.517Z,-2.13
2023-01-28T18:30:11.581Z,-2.17
2023-01-28T18:32:38.144Z,-2.29
2023-01-28T18:35:05.164Z,-2.23
2023-01-28T18:37:31.767Z,-2.42
2023-01-28T18:39:58.358Z,-2.22
2023-01-28T18:42:24.902Z,-2.19
2023-01-28T18:44:51.504Z,-2.17
2023-01-28T18:47:18.024Z,-2.20
2023-01-28T18:49:44.553Z,-2.21
2023-01-28T18:52:11.106Z,-2.18
2023-01-28T18:54:40.385Z,-2.19
2023-01-28T18:57:07.300Z,-2.27
2023-01-28T18:59:36.497Z,-2.25
2023-01-28T19:02:14.929Z,-2.33
2023-01-28T19:04:41.809Z,-2.30
2023-01-28T19:07:09.872Z,-2.25
2023-01-28T19:09:44.864Z,-2.28
2023-01-28T19:12:11.537Z,-2.28
2023-01-28T19:14:38.104Z,-2.17
2023-01-28T19:17:04.699Z,-2.26
2023-01-28T19:19:31.264Z,-2.28
2023-01-28T19:21:57.881Z,-2.26
2023-01-28T19:24:24.507Z,-2.23
2023-01-28T19:26:51.256Z,-2.25
2023-01-28T19:29:17.846Z,-2.22
2023-01-28T19:31:44.494Z,-2.25
2023-01-28T19:34:11.209Z,-2.27
2023-01-28T19:36:37.723Z,-2.22
2023-01-28T19:39:06.467Z,-2.41
2023-01-28T19:41:33.001Z,-2.32
2023-01-28T19:43:59.636Z,-2.32
2023-01-28T19:46:26.436Z,-2.35
2023-01-28T19:48:53.278Z,-2.31
2023-01-28T19:51:19.919Z,-2.33
2023-01-28T19:53:46.657Z,-2.28
2023-01-28T19:56:14.240Z,-2.36
2023-01-28T19:58:42.697Z,-2.36
2023-01-28T20:01:11.279Z,-2.27
2023-01-28T20:03:37.923Z,-2.29
2023-01-28T20:06:06.243Z,-2.22
2023-01-28T20:08:32.938Z,-2.32
2023-01-28T20:11:04.264Z,-2.34
2023-01-28T20:13:31.614Z,-2.37
2023-01-28T20:15:58.192Z,-2.39
2023-01-28T20:18:25.211Z,-2.35
2023-01-28T20:20:55.153Z,-2.30
2023-01-28T20:23:22.187Z,-2.42
2023-01-28T20:25:52.483Z,-2.27
2023-01-28T20:28:19.043Z,-2.32
2023-01-28T20:30:49.245Z,-2.25
2023-01-28T20:33:16.050Z,-2.35
2023-01-28T20:35:45.697Z,-2.37
2023-01-28T20:38:12.563Z,-2.39
2023-01-28T20:40:39.368Z,-2.37
2023-01-28T20:43:06.489Z,-2.36
2023-01-28T20:45:35.815Z,-2.30
2023-01-28T20:48:02.493Z,-2.41
2023-01-28T20:50:29.427Z,-2.42
2023-01-28T20:52:56.034Z,-2.30
2023-01-28T20:55:25.509Z,-2.33
2023-01-28T20:57:52.405Z,-2.30
2023-01-28T21:00:24.690Z,-2.37
2023-01-28T21:02:55.400Z,-2.37
2023-01-28T21:05:28.259Z,-2.41
2023-01-28T21:07:55.449Z,-2.42
2023-01-28T21:10:25.498Z,-2.37
2023-01-28T21:12:56.314Z,-2.41
2023-01-28T21:15:26.311Z,-2.42
2023-01-28T21:17:56.710Z,-2.36
2023-01-28T21:20:23.565Z,-2.44
2023-01-28T21:22:51.350Z,-2.44
2023-01-28T21:25:17.950Z,-2.41
2023-01-28T21:27:44.503Z,-2.44
2023-01-28T21:30:11.585Z,-2.48
2023-01-28T21:32:38.119Z,-2.42
2023-01-28T21:35:04.804Z,-2.49
2023-01-28T21:37:31.388Z,-2.45
2023-01-28T21:39:58.307Z,-2.55
2023-01-28T21:42:25.016Z,-2.62
2023-01-28T21:44:51.509Z,-2.54
2023-01-28T21:47:18.027Z,-2.57
2023-01-28T21:49:44.618Z,-2.52
2023-01-28T21:52:12.382Z,-2.47
2023-01-28T21:54:38.902Z,-2.54
2023-01-28T21:57:05.573Z,-2.55
2023-01-28T21:59:32.114Z,-2.62
2023-01-28T22:01:59.302Z,-2.55
2023-01-28T22:04:36.651Z,-2.62
2023-01-28T22:07:04.483Z,-2.60
2023-01-28T22:09:31.164Z,-2.66
2023-01-28T22:11:57.740Z,-2.72
2023-01-28T22:14:24.322Z,-2.63
2023-01-28T22:16:50.967Z,-2.63
2023-01-28T22:19:17.766Z,-2.69
2023-01-28T22:21:44.794Z,-2.72
2023-01-28T22:24:21.667Z,-2.80
2023-01-28T22:26:48.648Z,-2.79
2023-01-28T22:29:16.288Z,-2.73
2023-01-28T22:31:46.616Z,-2.80
2023-01-28T22:34:13.226Z,-2.81
2023-01-28T22:36:39.745Z,-2.79
2023-01-28T22:39:07.099Z,-2.78
2023-01-28T22:41:33.861Z,-2.75
2023-01-28T22:44:00.405Z,-2.78
2023-01-28T22:46:27.182Z,-2.77
2023-01-28T22:48:53.732Z,-2.83
2023-01-28T22:51:21.972Z,-2.76
2023-01-28T22:53:48.754Z,-2.80
2023-01-28T22:56:15.578Z,-2.17
2023-01-28T22:58:42.119Z,-2.78
2023-01-28T23:01:08.637Z,-2.72
2023-01-28T23:03:35.319Z,-2.78
2023-01-28T23:06:02.744Z,-2.73
2023-01-28T23:08:29.414Z,-2.82
2023-01-28T23:10:56.091Z,-2.85
2023-01-28T23:13:23.022Z,-2.88
2023-01-28T23:15:49.772Z,-2.84
2023-01-28T23:18:18.475Z,-2.88
2023-01-28T23:20:45.085Z,-2.77
2023-01-28T23:23:15.788Z,-2.88
2023-01-28T23:25:42.329Z,-2.77
2023-01-28T23:28:08.865Z,-2.86
2023-01-28T23:30:35.375Z,-2.87
2023-01-28T23:33:01.961Z,-2.87
2023-01-28T23:35:28.547Z,-2.92
2023-01-28T23:37:55.105Z,-2.83
2023-01-28T23:40:21.662Z,-2.89
2023-01-28T23:42:48.996Z,-2.86
2023-01-28T23:45:15.496Z,-2.90
2023-01-28T23:47:42.078Z,-2.84
2023-01-28T23:50:09.370Z,-2.83
2023-01-28T23:52:36.045Z,-2.84
2023-01-28T23:55:03.131Z,-2.86
2023-01-28T23:57:29.680Z,-2.86
2023-01-28T23:59:56.197Z,-2.97
